Time;durP1;ratioP1;P1;durP2;ratioP2;P2;SDS_P1;SDS_P2;PMS_P1;PMS_P2;Temp;Humidity;BMP_temperature;BMP_pressure;BME280_temperature;BME280_humidity;BME280_pressure;Samples;Min_cycle;Max_cycle;Signal;HPM_P1;HPM_P2
2023/08/15 00:02:07;;;;;;;4.30;3.90;;;20.90;99.90;;;;;;5084965;28;20217;-57
2023/08/15 00:04:35;;;;;;;4.67;4.17;;;20.80;99.90;;;;;;5084240;28;20256;-57
2023/08/15 00:10:40;;;;;;;5.33;4.83;;;20.80;99.90;;;;;;5058772;28;20232;-54
2023/08/15 00:13:06;;;;;;;5.47;4.80;;;20.80;99.90;;;;;;5064133;28;20667;-55
2023/08/15 00:15:31;;;;;;;5.23;4.73;;;20.80;99.90;;;;;;5061071;28;20198;-54
2023/08/15 00:17:57;;;;;;;6.30;5.67;;;20.80;99.90;;;;;;5044955;28;20294;-56
2023/08/15 00:20:22;;;;;;;6.57;5.90;;;20.80;99.90;;;;;;5055418;28;20620;-56
2023/08/15 00:22:48;;;;;;;6.63;5.33;;;20.70;99.90;;;;;;5054695;28;20198;-55
2023/08/15 00:25:13;;;;;;;6.37;5.20;;;20.70;99.90;;;;;;5048489;28;20226;-55
2023/08/15 00:27:39;;;;;;;8.10;6.40;;;20.60;99.90;;;;;;5036556;28;20210;-55
2023/08/15 00:30:05;;;;;;;6.33;5.10;;;20.70;99.90;;;;;;5055512;28;20196;-55
2023/08/15 00:32:35;;;;;;;6.93;5.67;;;20.70;99.90;;;;;;5044931;28;20207;-56
2023/08/15 00:35:04;;;;;;;7.27;6.43;;;20.80;99.90;;;;;;5045972;28;20244;-55
2023/08/15 00:37:31;;;;;;;7.13;6.13;;;20.80;99.90;;;;;;5046655;28;20703;-56
2023/08/15 00:39:56;;;;;;;7.07;6.27;;;21.00;99.90;;;;;;5062861;28;20171;-56
2023/08/15 00:42:22;;;;;;;8.63;6.33;;;21.10;99.90;;;;;;5061264;28;20201;-55
2023/08/15 00:44:47;;;;;;;8.00;6.60;;;21.10;99.90;;;;;;5056808;28;20244;-56
2023/08/15 00:47:13;;;;;;;3.87;3.53;;;21.10;99.90;;;;;;5047693;28;20296;-55
2023/08/15 00:49:44;;;;;;;3.63;3.30;;;20.90;99.90;;;;;;5053020;28;20197;-56
2023/08/15 00:52:11;;;;;;;4.70;3.63;;;20.70;99.90;;;;;;5063038;28;20713;-56
2023/08/15 00:54:38;;;;;;;5.90;3.33;;;20.70;99.90;;;;;;5062815;28;20619;-56
2023/08/15 00:57:05;;;;;;;4.63;3.13;;;20.60;99.90;;;;;;5063356;28;20197;-56
2023/08/15 00:59:30;;;;;;;3.40;3.03;;;20.50;99.90;;;;;;5063187;28;20201;-55
2023/08/15 01:01:58;;;;;;;4.83;3.00;;;20.50;99.90;;;;;;5051665;28;20202;-55
2023/08/15 01:04:24;;;;;;;3.47;3.23;;;20.60;99.90;;;;;;5062736;28;20231;-55
2023/08/15 01:06:50;;;;;;;6.13;2.97;;;20.60;99.90;;;;;;5055313;28;20194;-56
2023/08/15 01:09:16;;;;;;;4.07;3.10;;;20.50;99.90;;;;;;5062638;28;20202;-56
2023/08/15 01:11:53;;;;;;;3.83;3.40;;;20.60;99.90;;;;;;5061350;28;20215;-56
2023/08/15 01:14:20;;;;;;;5.03;3.33;;;20.60;99.90;;;;;;5063050;28;20190;-56
2023/08/15 01:16:48;;;;;;;5.13;3.70;;;20.60;99.90;;;;;;5062417;28;20201;-57
2023/08/15 01:19:31;;;;;;;3.67;3.40;;;20.60;99.90;;;;;;5062467;28;20225;-55
2023/08/15 01:21:58;;;;;;;3.97;3.30;;;20.60;99.90;;;;;;5062632;28;20851;-58
2023/08/15 01:24:25;;;;;;;2.93;2.73;;;20.60;99.90;;;;;;5062670;28;20221;-59
2023/08/15 01:26:50;;;;;;;2.90;2.63;;;20.60;99.90;;;;;;5044718;28;20207;-57
2023/08/15 01:29:16;;;;;;;4.63;3.30;;;20.60;99.90;;;;;;5061613;28;20193;-57
2023/08/15 01:31:54;;;;;;;4.23;3.30;;;20.50;99.90;;;;;;5062404;28;20204;-55
2023/08/15 01:34:32;;;;;;;7.67;3.67;;;20.50;99.90;;;;;;5055935;28;20193;-56
2023/08/15 01:37:07;;;;;;;4.73;3.43;;;20.50;99.90;;;;;;5062423;28;20216;-55
2023/08/15 01:39:34;;;;;;;5.10;3.60;;;20.50;99.90;;;;;;5062993;28;20180;-54
2023/08/15 01:42:01;;;;;;;3.47;3.27;;;20.50;99.90;;;;;;5060843;28;20198;-55
2023/08/15 01:44:29;;;;;;;3.70;3.40;;;20.40;99.90;;;;;;5058104;28;20212;-55
2023/08/15 01:46:56;;;;;;;2.97;2.77;;;20.40;99.90;;;;;;5054717;28;20198;-55
2023/08/15 01:49:22;;;;;;;5.60;3.70;;;20.40;99.90;;;;;;5062318;28;20201;-55
2023/08/15 01:51:47;;;;;;;3.80;3.53;;;20.50;99.90;;;;;;5062143;28;20197;-55
2023/08/15 01:54:12;;;;;;;3.90;3.50;;;20.50;99.90;;;;;;5057204;28;20220;-56
2023/08/15 01:56:38;;;;;;;3.77;3.40;;;20.40;99.90;;;;;;5045648;28;20584;-56
2023/08/15 01:59:03;;;;;;;4.03;3.70;;;20.40;99.90;;;;;;5061554;28;20257;-57
2023/08/15 02:01:29;;;;;;;3.73;3.43;;;20.50;99.90;;;;;;5049866;28;20198;-56
2023/08/15 02:03:54;;;;;;;3.97;3.60;;;20.50;99.90;;;;;;5062351;28;20217;-56
2023/08/15 02:06:20;;;;;;;3.73;3.23;;;20.40;99.90;;;;;;5062426;28;20204;-56
2023/08/15 02:08:45;;;;;;;4.40;3.33;;;20.40;99.90;;;;;;5047412;28;20198;-56
2023/08/15 02:11:11;;;;;;;4.23;3.10;;;20.40;99.90;;;;;;5057225;28;20252;-56
2023/08/15 02:13:36;;;;;;;7.13;3.37;;;20.40;99.90;;;;;;5046863;28;20187;-55
2023/08/15 02:16:02;;;;;;;3.20;2.70;;;20.40;99.90;;;;;;5060919;28;20231;-59
2023/08/15 02:18:31;;;;;;;8.17;3.23;;;20.40;99.90;;;;;;5061606;28;20692;-57
2023/08/15 02:20:56;;;;;;;4.60;3.50;;;20.40;99.90;;;;;;5045803;28;20201;-56
2023/08/15 02:23:22;;;;;;;2.63;2.43;;;20.40;99.90;;;;;;5060770;28;20186;-56
2023/08/15 02:25:47;;;;;;;3.50;3.20;;;20.50;99.90;;;;;;5061278;28;20214;-56
2023/08/15 02:28:13;;;;;;;3.10;2.90;;;20.50;99.90;;;;;;5061830;28;20190;-56
2023/08/15 02:30:38;;;;;;;2.50;2.30;;;20.50;99.90;;;;;;5040322;28;20211;-55
2023/08/15 02:33:05;;;;;;;3.63;2.77;;;20.40;99.90;;;;;;5061227;28;20278;-57
2023/08/15 02:35:30;;;;;;;2.60;2.40;;;20.30;99.90;;;;;;5035580;28;20297;-55
2023/08/15 02:37:56;;;;;;;2.53;2.33;;;20.30;99.90;;;;;;5060050;28;20323;-55
2023/08/15 02:40:26;;;;;;;4.30;3.87;;;20.30;99.90;;;;;;5040180;28;20201;-55
2023/08/15 02:42:52;;;;;;;9.10;5.70;;;20.30;99.90;;;;;;5060218;28;20273;-58
2023/08/15 02:45:18;;;;;;;4.57;3.40;;;20.40;99.90;;;;;;5056810;28;20359;-58
2023/08/15 02:47:44;;;;;;;4.37;3.13;;;20.30;99.90;;;;;;5044848;28;20877;-57
2023/08/15 02:50:10;;;;;;;5.47;4.33;;;20.30;99.90;;;;;;5057518;28;20186;-57
2023/08/15 02:52:36;;;;;;;4.13;3.73;;;20.40;99.90;;;;;;5061356;28;20197;-59
2023/08/15 02:55:02;;;;;;;4.10;3.80;;;20.40;99.90;;;;;;5047656;28;20230;-58
2023/08/15 02:57:27;;;;;;;7.87;3.27;;;20.30;99.90;;;;;;5041314;28;20194;-56
2023/08/15 02:59:53;;;;;;;4.87;3.43;;;20.30;99.90;;;;;;5041920;28;20201;-57
2023/08/15 03:02:18;;;;;;;6.43;3.60;;;20.30;99.90;;;;;;5027369;28;20838;-55
2023/08/15 03:04:43;;;;;;;4.40;4.00;;;20.30;99.90;;;;;;5041439;28;20305;-56
2023/08/15 03:07:09;;;;;;;4.37;3.97;;;20.30;99.90;;;;;;5025996;28;20198;-56
2023/08/15 03:09:34;;;;;;;7.77;4.33;;;20.30;99.90;;;;;;5040371;28;20796;-56
2023/08/15 03:12:00;;;;;;;5.77;4.97;;;20.30;99.90;;;;;;5041527;28;20208;-56
2023/08/15 03:14:29;;;;;;;4.50;4.13;;;20.30;99.90;;;;;;5041168;28;20255;-56
2023/08/15 03:16:55;;;;;;;7.03;5.27;;;20.30;99.90;;;;;;5041437;28;20561;-56
2023/08/15 03:19:20;;;;;;;6.07;5.47;;;20.30;99.90;;;;;;5024408;28;20206;-56
2023/08/15 03:21:46;;;;;;;6.83;5.77;;;20.30;99.90;;;;;;5040401;28;20205;-57
2023/08/15 03:24:11;;;;;;;6.50;5.90;;;20.30;99.90;;;;;;5041148;28;20879;-56
2023/08/15 03:26:37;;;;;;;6.73;6.13;;;20.20;99.90;;;;;;5041039;28;20194;-59
2023/08/15 03:29:02;;;;;;;7.17;6.47;;;20.20;99.90;;;;;;5041491;28;20205;-58
2023/08/15 03:31:28;;;;;;;6.60;5.57;;;20.20;99.90;;;;;;5041318;28;20292;-56
2023/08/15 03:33:53;;;;;;;6.30;5.67;;;20.10;99.90;;;;;;5026467;28;20221;-56
2023/08/15 03:36:19;;;;;;;6.80;5.70;;;20.10;99.90;;;;;;5040474;28;20198;-57
2023/08/15 03:38:44;;;;;;;6.20;5.60;;;20.10;99.90;;;;;;5040391;28;20851;-57
2023/08/15 03:41:10;;;;;;;5.90;5.40;;;20.10;99.90;;;;;;5041083;28;20190;-56
2023/08/15 03:43:36;;;;;;;5.57;5.07;;;20.10;99.90;;;;;;5040833;28;20285;-58
2023/08/15 03:46:03;;;;;;;8.80;7.90;;;20.10;99.90;;;;;;5031204;28;20205;-55
2023/08/15 03:48:30;;;;;;;11.40;6.73;;;20.20;99.90;;;;;;5044367;28;20187;-55
2023/08/15 03:50:56;;;;;;;6.43;5.93;;;20.20;99.90;;;;;;5044655;28;20276;-56
2023/08/15 03:53:22;;;;;;;6.70;6.10;;;20.10;99.90;;;;;;5044803;28;20202;-56
2023/08/15 03:55:49;;;;;;;8.97;7.37;;;20.10;99.90;;;;;;5062786;28;20314;-56
2023/08/15 03:58:18;;;;;;;6.87;6.37;;;20.10;99.90;;;;;;5064400;28;20463;-56
2023/08/15 04:00:45;;;;;;;6.33;5.83;;;20.10;99.90;;;;;;5112991;22;20849;-58
2023/08/15 04:03:10;;;;;;;6.60;6.07;;;20.10;99.90;;;;;;5081787;28;20208;-56
2023/08/15 04:05:36;;;;;;;7.53;6.30;;;20.00;99.90;;;;;;5084597;28;20872;-55
2023/08/15 04:08:04;;;;;;;7.40;6.70;;;20.00;99.90;;;;;;5084186;28;20274;-55
2023/08/15 04:10:30;;;;;;;9.37;7.43;;;20.00;99.90;;;;;;5084308;28;20240;-56
2023/08/15 04:12:55;;;;;;;6.30;5.70;;;20.00;99.90;;;;;;5084101;28;20500;-55
2023/08/15 04:15:21;;;;;;;7.93;5.93;;;20.00;99.90;;;;;;5084104;28;20692;-59
2023/08/15 04:17:47;;;;;;;7.57;6.87;;;20.00;99.90;;;;;;5084027;28;20217;-57
2023/08/15 04:20:13;;;;;;;7.50;6.90;;;20.00;99.90;;;;;;5075492;28;20207;-60
2023/08/15 04:22:39;;;;;;;9.57;7.57;;;20.10;99.90;;;;;;5064586;28;20795;-56
2023/08/15 04:25:07;;;;;;;8.47;7.67;;;20.10;99.90;;;;;;5084272;28;20262;-56
2023/08/15 04:27:32;;;;;;;10.17;8.80;;;20.10;99.90;;;;;;5084111;28;20282;-55
2023/08/15 04:29:58;;;;;;;10.57;9.57;;;20.00;99.90;;;;;;5083968;28;21486;-55
2023/08/15 04:32:23;;;;;;;12.10;9.10;;;20.10;99.90;;;;;;5067511;28;20449;-55
2023/08/15 04:34:49;;;;;;;11.00;9.67;;;20.00;99.90;;;;;;5069145;28;20504;-55
2023/08/15 04:37:14;;;;;;;10.27;9.33;;;20.10;99.90;;;;;;5083192;28;20197;-55
2023/08/15 04:39:40;;;;;;;11.40;10.07;;;20.00;99.90;;;;;;5083565;28;20200;-55
2023/08/15 04:42:05;;;;;;;12.33;9.83;;;20.00;99.90;;;;;;5083214;28;20238;-55
2023/08/15 04:44:31;;;;;;;10.87;9.87;;;20.00;99.90;;;;;;5081156;28;20231;-55
2023/08/15 04:46:56;;;;;;;11.03;10.03;;;20.00;99.90;;;;;;5083637;28;20280;-55
2023/08/15 04:49:22;;;;;;;11.13;9.97;;;20.00;99.90;;;;;;5067380;28;20212;-56
2023/08/15 04:51:47;;;;;;;11.17;10.00;;;20.00;99.90;;;;;;5082930;28;20290;-56
2023/08/15 04:54:13;;;;;;;11.90;10.80;;;20.00;99.90;;;;;;5083037;28;20193;-56
2023/08/15 04:56:38;;;;;;;10.67;9.67;;;20.00;99.90;;;;;;5051183;28;20269;-55
2023/08/15 04:59:04;;;;;;;11.47;9.20;;;20.00;99.90;;;;;;5082481;28;20182;-56
2023/08/15 05:01:30;;;;;;;8.60;7.80;;;20.00;99.90;;;;;;5083692;28;20228;-56
2023/08/15 05:03:55;;;;;;;10.07;8.43;;;20.00;99.90;;;;;;5082533;28;20213;-56
2023/08/15 05:06:20;;;;;;;9.10;8.13;;;20.00;99.90;;;;;;5083995;28;20263;-56
2023/08/15 05:08:46;;;;;;;9.10;8.30;;;20.10;99.90;;;;;;5065450;28;20199;-57
2023/08/15 05:11:11;;;;;;;8.53;7.63;;;20.10;99.90;;;;;;5083533;28;20272;-63
2023/08/15 05:13:37;;;;;;;9.10;7.70;;;20.10;99.90;;;;;;5066444;28;20776;-58
2023/08/15 05:16:03;;;;;;;7.23;6.50;;;20.00;99.90;;;;;;5084303;28;20198;-58
2023/08/15 05:18:28;;;;;;;9.93;7.00;;;20.00;99.90;;;;;;5061630;28;20707;-58
2023/08/15 05:20:54;;;;;;;7.80;7.00;;;20.00;99.90;;;;;;5077447;28;20195;-58
2023/08/15 05:23:19;;;;;;;7.87;6.83;;;20.00;99.90;;;;;;5083709;28;20670;-58
2023/08/15 05:25:46;;;;;;;9.10;8.20;;;20.00;99.90;;;;;;5073662;28;20221;-56
2023/08/15 05:28:11;;;;;;;8.53;7.70;;;20.10;99.90;;;;;;5082269;28;20201;-56
2023/08/15 05:30:37;;;;;;;9.17;6.83;;;20.10;99.90;;;;;;5082791;28;20209;-57
2023/08/15 05:33:03;;;;;;;14.40;8.50;;;20.10;99.90;;;;;;5076602;28;20201;-56
2023/08/15 05:35:29;;;;;;;8.47;7.63;;;20.10;99.90;;;;;;5070061;28;20193;-57
2023/08/15 05:37:54;;;;;;;8.93;7.73;;;20.10;99.90;;;;;;5064044;28;20203;-56
2023/08/15 05:40:21;;;;;;;10.63;7.13;;;20.10;99.90;;;;;;5069161;28;20201;-56
2023/08/15 05:42:46;;;;;;;9.10;8.17;;;20.10;99.90;;;;;;5081824;28;20771;-57
2023/08/15 05:45:12;;;;;;;8.83;7.93;;;20.10;99.90;;;;;;5070943;28;20222;-57
2023/08/15 05:47:37;;;;;;;7.50;6.80;;;20.20;99.90;;;;;;5083424;28;20211;-57
2023/08/15 05:50:03;;;;;;;14.57;8.87;;;20.20;99.90;;;;;;5082942;28;20192;-58
2023/08/15 05:52:29;;;;;;;7.50;6.80;;;20.20;99.90;;;;;;5078288;28;20258;-57
2023/08/15 05:54:55;;;;;;;6.97;6.27;;;20.20;99.90;;;;;;5082473;28;20267;-57
2023/08/15 05:57:21;;;;;;;7.00;6.50;;;20.20;99.90;;;;;;5082119;28;20338;-58
2023/08/15 05:59:46;;;;;;;9.57;7.40;;;20.20;99.90;;;;;;5081875;28;20276;-58
2023/08/15 06:02:13;;;;;;;7.40;6.70;;;20.20;99.90;;;;;;5071209;28;20196;-58
2023/08/15 06:04:39;;;;;;;7.53;6.17;;;20.30;99.90;;;;;;5063877;28;20756;-57
2023/08/15 06:07:05;;;;;;;7.73;7.00;;;20.30;99.90;;;;;;5081568;28;20426;-57
2023/08/15 06:09:31;;;;;;;5.87;5.37;;;20.30;99.90;;;;;;5081177;28;20230;-57
2023/08/15 06:11:57;;;;;;;7.03;6.33;;;20.40;99.90;;;;;;5082250;28;20211;-57
2023/08/15 06:14:23;;;;;;;7.27;6.57;;;20.40;99.90;;;;;;5082090;28;20196;-57
2023/08/15 06:16:49;;;;;;;7.70;7.00;;;20.30;99.90;;;;;;5081934;28;20202;-57
2023/08/15 06:19:14;;;;;;;8.23;5.60;;;20.40;99.90;;;;;;5073447;28;20220;-57
2023/08/15 06:21:41;;;;;;;6.63;6.00;;;20.40;99.90;;;;;;5082092;28;20855;-58
2023/08/15 06:24:09;;;;;;;17.53;7.03;;;20.40;99.90;;;;;;5081836;28;20226;-58
2023/08/15 06:26:34;;;;;;;7.57;6.77;;;20.50;99.90;;;;;;5082088;28;20200;-54
2023/08/15 06:29:00;;;;;;;6.50;5.90;;;20.60;99.90;;;;;;5081938;28;20201;-57
2023/08/15 06:31:25;;;;;;;6.73;6.17;;;20.60;99.90;;;;;;5082059;28;20680;-56
2023/08/15 06:33:51;;;;;;;6.03;5.60;;;20.60;99.90;;;;;;5079751;28;20213;-57
2023/08/15 06:36:16;;;;;;;6.57;5.97;;;20.60;99.90;;;;;;5081803;28;20277;-58
2023/08/15 06:38:41;;;;;;;6.67;6.07;;;20.70;99.90;;;;;;5081320;28;20715;-57
2023/08/15 06:41:07;;;;;;;9.63;6.33;;;20.80;99.90;;;;;;5081397;28;20228;-57
2023/08/15 06:43:32;;;;;;;7.23;5.80;;;20.80;99.90;;;;;;5081881;28;20701;-57
2023/08/15 06:45:58;;;;;;;6.23;5.73;;;20.80;99.90;;;;;;5064624;28;20228;-57
2023/08/15 06:48:23;;;;;;;5.83;5.37;;;20.90;99.90;;;;;;5082107;28;20202;-56
2023/08/15 06:50:49;;;;;;;6.77;5.43;;;21.00;99.90;;;;;;5080150;28;20209;-57
2023/08/15 06:53:14;;;;;;;7.40;5.10;;;21.00;99.90;;;;;;5075641;28;20263;-57
2023/08/15 06:55:40;;;;;;;5.67;5.27;;;21.00;99.90;;;;;;5082391;28;20687;-56
2023/08/15 06:58:05;;;;;;;6.17;5.37;;;21.10;99.90;;;;;;5081923;28;20343;-57
2023/08/15 07:00:31;;;;;;;5.27;4.87;;;21.20;99.90;;;;;;5063069;28;20291;-56
2023/08/15 07:02:56;;;;;;;5.17;4.77;;;21.20;99.90;;;;;;5077675;28;21131;-57
2023/08/15 07:05:22;;;;;;;4.97;4.57;;;21.20;99.90;;;;;;5082030;28;20271;-57
2023/08/15 07:07:47;;;;;;;7.70;5.17;;;21.20;99.90;;;;;;5082125;28;20196;-57
2023/08/15 07:10:14;;;;;;;7.43;4.87;;;21.20;99.90;;;;;;5079541;28;20185;-57
2023/08/15 07:12:39;;;;;;;5.93;4.30;;;21.30;99.90;;;;;;5075475;28;20198;-61
2023/08/15 07:15:06;;;;;;;4.60;4.07;;;21.40;99.90;;;;;;5064180;28;20193;-57
2023/08/15 07:17:31;;;;;;;5.10;4.10;;;21.50;99.90;;;;;;5078060;28;20195;-59
2023/08/15 07:19:57;;;;;;;5.40;4.20;;;21.60;99.90;;;;;;5078522;28;20186;-59
2023/08/15 07:22:23;;;;;;;4.77;4.30;;;21.60;99.90;;;;;;5071630;28;20268;-59
2023/08/15 07:24:49;;;;;;;4.37;4.07;;;21.70;99.90;;;;;;5084121;28;20326;-59
2023/08/15 07:27:14;;;;;;;4.80;4.30;;;21.70;99.90;;;;;;5085475;28;20194;-59
2023/08/15 07:29:39;;;;;;;4.00;3.70;;;21.80;99.90;;;;;;5085146;28;20894;-59
2023/08/15 07:32:06;;;;;;;4.67;4.27;;;21.80;99.90;;;;;;5063057;28;20214;-59
2023/08/15 07:34:32;;;;;;;4.80;4.40;;;21.80;99.90;;;;;;5073712;28;20190;-59
2023/08/15 07:36:57;;;;;;;4.23;3.83;;;21.90;99.90;;;;;;5085154;28;20524;-60
2023/08/15 07:39:23;;;;;;;5.65;4.13;;;22.00;99.90;;;;;;5082640;28;20288;-56
2023/08/15 07:41:49;;;;;;;4.72;4.32;;;22.00;99.90;;;;;;5084625;28;20181;-60
2023/08/15 07:44:15;;;;;;;4.32;3.95;;;22.10;99.90;;;;;;5078520;28;20740;-55
2023/08/15 07:46:40;;;;;;;4.38;4.07;;;22.10;99.90;;;;;;5084061;28;20198;-57
2023/08/15 07:49:06;;;;;;;11.30;7.20;;;22.10;99.90;;;;;;5083064;28;20181;-59
2023/08/15 07:51:31;;;;;;;3.83;3.53;;;22.10;99.90;;;;;;5081186;28;20200;-58
2023/08/15 07:53:57;;;;;;;4.13;3.73;;;22.20;99.90;;;;;;5084286;28;20185;-59
2023/08/15 07:56:23;;;;;;;5.22;3.67;;;22.20;99.90;;;;;;5068681;28;21012;-59
2023/08/15 07:58:48;;;;;;;4.57;3.10;;;22.20;99.90;;;;;;5084054;28;20693;-59
2023/08/15 08:01:14;;;;;;;4.83;4.13;;;22.30;99.90;;;;;;5084036;28;21018;-59
2023/08/15 08:03:42;;;;;;;3.97;3.57;;;22.30;99.90;;;;;;5084637;28;20663;-58
2023/08/15 08:06:08;;;;;;;38.85;19.45;;;22.20;99.90;;;;;;5078672;28;20225;-62
2023/08/15 08:08:33;;;;;;;4.00;3.70;;;22.30;99.90;;;;;;5084281;28;20210;-63
2023/08/15 08:10:59;;;;;;;13.18;4.20;;;22.40;99.90;;;;;;5084562;28;20726;-59
2023/08/15 08:13:24;;;;;;;5.28;3.95;;;22.60;99.90;;;;;;5082303;28;20316;-59
2023/08/15 08:15:50;;;;;;;4.18;3.85;;;22.60;99.90;;;;;;5084669;28;20240;-59
2023/08/15 08:18:15;;;;;;;4.43;4.13;;;22.50;99.90;;;;;;5084590;28;20209;-64
2023/08/15 08:20:41;;;;;;;17.45;8.73;;;22.60;99.90;;;;;;5084429;28;20201;-63
2023/08/15 08:23:08;;;;;;;5.18;4.55;;;22.70;99.90;;;;;;5084082;28;20185;-64
2023/08/15 08:25:33;;;;;;;18.53;4.73;;;22.80;99.90;;;;;;5077810;28;20255;-55
2023/08/15 08:27:59;;;;;;;6.05;4.60;;;22.70;99.90;;;;;;5083561;28;20194;-55
2023/08/15 08:30:25;;;;;;;5.72;4.18;;;22.60;99.90;;;;;;5067390;28;20210;-55
2023/08/15 08:32:53;;;;;;;5.13;4.70;;;22.60;99.90;;;;;;5063282;28;20277;-55
2023/08/15 08:35:19;;;;;;;4.90;4.43;;;22.60;99.90;;;;;;5083410;28;20189;-56
2023/08/15 08:37:47;;;;;;;5.10;4.78;;;22.50;99.90;;;;;;5083398;28;20193;-58
2023/08/15 08:40:13;;;;;;;5.75;4.32;;;22.50;99.90;;;;;;5083791;28;20189;-58
2023/08/15 08:42:40;;;;;;;6.05;5.53;;;22.30;99.90;;;;;;5080948;28;20201;-59
2023/08/15 08:45:08;;;;;;;5.40;4.93;;;22.40;99.90;;;;;;5078281;28;20201;-57
2023/08/15 08:47:34;;;;;;;5.40;5.00;;;22.30;99.90;;;;;;5081072;28;20181;-65
2023/08/15 08:50:00;;;;;;;6.27;5.67;;;22.30;99.90;;;;;;5075093;28;20194;-61
2023/08/15 08:52:27;;;;;;;6.30;5.80;;;22.40;99.90;;;;;;5070532;28;20193;-65
2023/08/15 08:54:53;;;;;;;5.90;5.43;;;22.50;99.90;;;;;;5082954;28;20204;-61
2023/08/15 08:57:20;;;;;;;6.30;5.80;;;22.50;99.90;;;;;;5083401;28;20189;-58
2023/08/15 08:59:46;;;;;;;6.43;5.53;;;22.40;99.90;;;;;;5078851;28;20846;-57
2023/08/15 09:02:21;;;;;;;7.53;6.75;;;22.40;99.90;;;;;;5083179;28;20189;-57
2023/08/15 09:04:48;;;;;;;7.32;6.82;;;22.40;99.90;;;;;;5080192;28;20197;-58
2023/08/15 09:07:15;;;;;;;6.90;5.97;;;22.30;99.90;;;;;;5082945;28;20247;-56
2023/08/15 09:09:41;;;;;;;6.77;6.20;;;22.30;99.90;;;;;;5082939;28;20308;-56
2023/08/15 09:12:06;;;;;;;5.38;4.95;;;22.20;99.90;;;;;;5063904;28;20832;-56
2023/08/15 09:14:32;;;;;;;6.03;5.60;;;22.40;99.90;;;;;;5082806;28;20189;-56
2023/08/15 09:16:57;;;;;;;6.28;5.70;;;22.60;99.90;;;;;;5072237;28;20815;-57
2023/08/15 09:19:23;;;;;;;5.85;5.35;;;22.70;99.90;;;;;;5082529;28;20236;-56
2023/08/15 09:21:48;;;;;;;6.03;5.53;;;22.60;99.90;;;;;;5082342;28;20193;-54
2023/08/15 09:24:14;;;;;;;6.80;6.20;;;22.50;99.90;;;;;;5080635;28;20282;-57
2023/08/15 09:26:40;;;;;;;6.30;5.68;;;22.40;99.90;;;;;;5082321;28;20277;-56
2023/08/15 09:29:05;;;;;;;7.23;6.53;;;22.50;99.90;;;;;;5082934;28;20200;-58
2023/08/15 09:31:31;;;;;;;6.33;5.93;;;22.60;99.90;;;;;;5079073;28;20232;-58
2023/08/15 09:33:57;;;;;;;6.63;6.13;;;22.70;99.90;;;;;;5082064;28;20671;-60
2023/08/15 09:36:23;;;;;;;7.83;5.53;;;22.70;99.90;;;;;;5082214;28;20190;-58
2023/08/15 09:38:54;;;;;;;7.10;6.57;;;22.80;99.90;;;;;;5082574;28;20325;-59
2023/08/15 09:41:24;;;;;;;6.33;5.83;;;22.90;99.90;;;;;;5080821;28;20225;-55
2023/08/15 09:43:51;;;;;;;5.93;5.43;;;22.90;99.90;;;;;;5073949;28;20275;-55
2023/08/15 09:46:18;;;;;;;6.20;5.80;;;22.90;99.90;;;;;;5081902;28;20189;-55
2023/08/15 09:48:48;;;;;;;7.77;6.50;;;22.90;99.90;;;;;;5082060;28;20779;-58
2023/08/15 09:51:16;;;;;;;7.90;7.20;;;22.90;99.90;;;;;;5076710;28;20186;-63
2023/08/15 09:53:43;;;;;;;12.57;8.30;;;22.80;99.90;;;;;;5070207;28;20200;-65
2023/08/15 09:56:09;;;;;;;8.77;7.97;;;23.10;99.90;;;;;;5082331;28;20192;-62
2023/08/15 09:58:35;;;;;;;6.30;5.80;;;23.10;99.90;;;;;;5082103;28;20268;-61
2023/08/15 10:01:03;;;;;;;7.88;7.15;;;23.20;99.90;;;;;;5070528;28;20310;-59
2023/08/15 10:03:37;;;;;;;7.78;7.07;;;23.40;99.90;;;;;;5066606;28;20239;-60
2023/08/15 10:06:04;;;;;;;5.30;4.85;;;23.50;99.90;;;;;;5079609;28;20682;-59
2023/08/15 10:08:30;;;;;;;7.40;6.38;;;23.50;99.90;;;;;;5081945;28;20193;-58
2023/08/15 10:10:58;;;;;;;6.22;5.72;;;23.60;99.90;;;;;;5081844;28;20195;-59
2023/08/15 10:13:31;;;;;;;8.70;7.03;;;23.60;99.90;;;;;;5080468;28;20206;-59
2023/08/15 10:15:58;;;;;;;8.50;7.10;;;23.60;99.90;;;;;;5081971;28;20193;-59
2023/08/15 10:18:24;;;;;;;11.70;9.93;;;23.70;99.90;;;;;;5082246;28;20946;-60
2023/08/15 10:20:51;;;;;;;8.00;7.32;;;24.00;99.90;;;;;;5081931;28;20204;-60
2023/08/15 10:23:28;;;;;;;7.57;6.82;;;24.10;99.90;;;;;;5066763;28;20854;-63
2023/08/15 10:25:54;;;;;;;6.93;5.50;;;24.10;99.90;;;;;;5068663;28;20201;-56
2023/08/15 10:28:20;;;;;;;7.15;6.65;;;24.00;99.90;;;;;;5069600;28;20199;-61
2023/08/15 10:30:46;;;;;;;7.97;7.35;;;23.90;99.90;;;;;;5063959;28;20254;-56
2023/08/15 10:33:15;;;;;;;7.38;6.88;;;23.90;99.90;;;;;;5080335;28;20734;-59
2023/08/15 10:35:55;;;;;;;7.55;6.38;;;24.00;99.90;;;;;;5081258;28;20226;-67
2023/08/15 10:38:35;;;;;;;7.03;6.32;;;24.00;99.90;;;;;;5081144;28;20273;-64
2023/08/15 10:41:05;;;;;;;8.27;7.22;;;24.10;99.90;;;;;;5081544;28;20194;-56
2023/08/15 10:43:33;;;;;;;5.68;5.15;;;24.00;99.90;;;;;;5078876;28;20203;-59
2023/08/15 10:46:06;;;;;;;7.13;6.53;;;24.10;99.90;;;;;;5076885;28;20280;-64
2023/08/15 10:48:43;;;;;;;7.10;6.55;;;24.20;99.90;;;;;;5067442;28;20175;-56
2023/08/15 10:51:17;;;;;;;7.57;6.70;;;24.30;99.90;;;;;;5077957;28;20201;-62
2023/08/15 10:53:42;;;;;;;6.95;6.38;;;24.50;99.90;;;;;;5080937;28;20198;-55
2023/08/15 10:56:09;;;;;;;8.05;7.35;;;24.70;99.90;;;;;;5083048;28;20583;-56
2023/08/15 10:58:36;;;;;;;8.20;7.30;;;24.90;99.90;;;;;;5085449;28;20267;-58
2023/08/15 11:01:02;;;;;;;7.15;6.45;;;25.00;99.90;;;;;;5085200;28;20219;-58
2023/08/15 11:03:28;;;;;;;7.32;5.75;;;25.10;99.90;;;;;;5080178;28;20768;-55
2023/08/15 11:06:06;;;;;;;7.35;6.07;;;25.30;99.90;;;;;;5081705;28;20211;-63
2023/08/15 11:08:31;;;;;;;7.55;5.95;;;25.20;99.90;;;;;;5085272;28;20187;-59
2023/08/15 11:10:57;;;;;;;5.97;5.47;;;25.40;99.90;;;;;;5085045;28;20221;-61
2023/08/15 11:13:22;;;;;;;5.93;5.25;;;25.30;99.90;;;;;;5083087;28;20199;-59
2023/08/15 11:15:48;;;;;;;7.25;4.53;;;26.10;99.90;;;;;;5084788;28;20903;-63
2023/08/15 11:18:22;;;;;;;4.40;4.00;;;26.10;99.90;;;;;;5084338;28;20213;-56
2023/08/15 11:20:48;;;;;;;5.55;4.30;;;25.80;99.90;;;;;;5085096;28;20182;-56
2023/08/15 11:23:15;;;;;;;5.05;4.57;;;26.00;99.90;;;;;;5084267;28;20207;-60
2023/08/15 11:25:40;;;;;;;5.32;4.93;;;26.20;99.90;;;;;;5083301;28;20283;-61
2023/08/15 11:28:06;;;;;;;5.03;4.68;;;26.70;99.90;;;;;;5085132;28;20292;-64
2023/08/15 11:30:33;;;;;;;6.03;4.30;;;26.80;99.90;;;;;;5063803;28;20239;-60
2023/08/15 11:32:59;;;;;;;4.22;3.92;;;27.00;99.90;;;;;;5083451;28;20196;-60
2023/08/15 11:35:24;;;;;;;5.78;4.90;;;27.10;99.90;;;;;;5085686;28;20193;-59
2023/08/15 11:37:50;;;;;;;4.13;3.83;;;27.10;99.90;;;;;;5079249;28;20938;-59
2023/08/15 11:40:15;;;;;;;3.85;3.55;;;27.30;99.90;;;;;;5085262;28;20225;-60
2023/08/15 11:42:41;;;;;;;4.45;3.63;;;27.00;99.90;;;;;;5082761;28;20584;-60
2023/08/15 11:45:11;;;;;;;6.25;4.30;;;26.80;99.90;;;;;;5082607;28;20210;-55
2023/08/15 11:47:50;;;;;;;4.50;4.10;;;26.70;99.90;;;;;;5084919;28;20190;-56
2023/08/15 11:50:18;;;;;;;5.35;4.85;;;26.80;99.90;;;;;;5082441;28;20185;-56
2023/08/15 11:52:45;;;;;;;5.22;3.97;;;27.80;99.90;;;;;;5083042;28;20182;-56
2023/08/15 11:55:10;;;;;;;5.55;5.10;;;28.70;99.90;;;;;;5085036;28;20198;-56
2023/08/15 11:57:36;;;;;;;4.70;4.30;;;29.20;99.90;;;;;;5080283;28;20252;-63
2023/08/15 12:00:02;;;;;;;6.78;5.90;;;29.10;99.90;;;;;;5086093;28;20208;-57
2023/08/15 12:02:28;;;;;;;4.95;4.50;;;28.50;99.90;;;;;;5084141;28;20185;-56
2023/08/15 12:04:53;;;;;;;5.82;4.72;;;28.50;99.90;;;;;;5083652;28;20212;-56
2023/08/15 12:07:19;;;;;;;7.90;6.60;;;28.80;99.90;;;;;;5084132;28;20186;-59
2023/08/15 12:09:45;;;;;;;6.38;5.35;;;29.00;99.90;;;;;;5084136;28;20186;-55
2023/08/15 12:12:18;;;;;;;6.53;5.75;;;29.00;99.90;;;;;;5081988;28;20212;-55
2023/08/15 12:14:43;;;;;;;5.75;5.25;;;28.90;99.90;;;;;;5082200;28;20226;-64
2023/08/15 12:17:09;;;;;;;4.97;4.53;;;28.90;99.90;;;;;;5083833;28;20203;-62
2023/08/15 12:19:34;;;;;;;17.52;6.15;;;29.40;99.90;;;;;;5071052;28;20201;-59
2023/08/15 12:22:00;;;;;;;4.60;4.20;;;29.70;99.90;;;;;;5083318;28;20193;-56
2023/08/15 12:24:25;;;;;;;7.88;5.63;;;29.50;99.90;;;;;;5076643;28;20853;-57
2023/08/15 12:26:51;;;;;;;4.30;4.00;;;30.00;99.90;;;;;;5083924;28;20197;-63
2023/08/15 12:29:16;;;;;;;3.92;3.60;;;30.60;99.90;;;;;;5072228;28;20206;-60
2023/08/15 12:31:42;;;;;;;4.10;3.70;;;31.50;99.90;;;;;;5063697;28;20769;-60
2023/08/15 12:34:07;;;;;;;4.70;4.10;;;31.50;99.90;;;;;;5075431;28;20659;-59
2023/08/15 12:36:33;;;;;;;7.80;4.88;;;31.60;99.90;;;;;;5082966;28;20189;-62
2023/08/15 12:38:58;;;;;;;5.03;3.80;;;31.70;99.90;;;;;;5074646;28;20181;-56
2023/08/15 12:41:24;;;;;;;5.32;3.95;;;32.20;99.70;;;;;;5082942;28;20194;-57
2023/08/15 12:43:51;;;;;;;3.97;3.75;;;32.70;98.40;;;;;;5078380;28;20281;-62
2023/08/15 12:46:16;;;;;;;4.63;3.97;;;32.50;98.70;;;;;;5071242;28;20217;-57